createdAt,value
2023-03-08T00:01:24.633Z,4.87
2023-03-08T00:03:54.515Z,5.57
2023-03-08T00:06:23.210Z,5.17
2023-03-08T00:08:51.832Z,5.10
2023-03-08T00:11:21.414Z,5.40
2023-03-08T00:13:50.187Z,4.93
2023-03-08T00:16:20.163Z,4.60
2023-03-08T00:18:48.961Z,5.03
2023-03-08T00:21:19.092Z,5.23
2023-03-08T00:23:48.138Z,4.03
2023-03-08T00:26:16.325Z,5.23
2023-03-08T00:28:47.489Z,5.10
2023-03-08T00:31:16.177Z,4.90
2023-03-08T00:33:44.687Z,5.33
2023-03-08T00:36:16.528Z,5.37
2023-03-08T00:38:45.726Z,5.67
2023-03-08T00:41:13.958Z,4.77
2023-03-08T00:43:43.499Z,5.23
2023-03-08T00:46:13.993Z,4.93
2023-03-08T00:48:43.435Z,4.43
2023-03-08T00:51:14.860Z,5.33
2023-03-08T00:53:43.439Z,4.80
2023-03-08T00:56:11.916Z,5.07
2023-03-08T00:58:41.900Z,4.20
2023-03-08T01:01:16.798Z,4.80
2023-03-08T01:03:45.447Z,5.20
2023-03-08T01:06:15.776Z,5.53
2023-03-08T01:08:44.606Z,5.10
2023-03-08T01:11:21.795Z,4.60
2023-03-08T01:13:51.216Z,4.63
2023-03-08T01:16:22.843Z,5.30
2023-03-08T01:18:51.634Z,5.17
2023-03-08T01:21:19.905Z,4.40
2023-03-08T01:23:49.598Z,4.53
2023-03-08T01:26:19.367Z,4.83
2023-03-08T01:28:48.270Z,5.23
2023-03-08T01:31:18.289Z,4.57
2023-03-08T01:33:49.435Z,4.73
2023-03-08T01:36:20.205Z,5.70
2023-03-08T01:38:49.429Z,5.07
2023-03-08T01:41:19.787Z,5.00
2023-03-08T01:43:49.176Z,4.43
2023-03-08T01:46:28.015Z,4.40
2023-03-08T01:49:04.715Z,4.77
2023-03-08T01:51:38.488Z,4.10
2023-03-08T01:54:11.267Z,3.90
2023-03-08T01:56:41.817Z,4.57
2023-03-08T01:59:10.896Z,3.97
2023-03-08T02:01:40.170Z,4.53
2023-03-08T02:04:11.426Z,4.63
2023-03-08T02:06:40.051Z,4.23
2023-03-08T02:09:08.628Z,4.37
2023-03-08T02:11:40.291Z,3.50
2023-03-08T02:14:08.756Z,4.30
2023-03-08T02:16:37.187Z,4.07
2023-03-08T02:19:09.308Z,3.87
2023-03-08T02:21:39.155Z,4.00
2023-03-08T02:24:36.436Z,4.40
2023-03-08T02:27:24.792Z,3.80
2023-03-08T02:29:53.635Z,4.20
2023-03-08T02:32:21.819Z,3.77
2023-03-08T02:34:50.270Z,3.47
2023-03-08T02:37:18.533Z,3.00
2023-03-08T02:39:48.314Z,3.47
2023-03-08T02:42:16.759Z,3.50
2023-03-08T02:44:45.249Z,3.33
2023-03-08T02:47:13.766Z,3.17
2023-03-08T02:49:42.262Z,3.53
2023-03-08T02:52:10.458Z,2.60
2023-03-08T02:54:39.000Z,2.87
2023-03-08T02:57:08.651Z,2.60
2023-03-08T02:59:37.166Z,2.40
2023-03-08T03:02:05.423Z,2.07
2023-03-08T03:04:34.867Z,2.40
2023-03-08T03:07:03.115Z,3.07
2023-03-08T03:09:31.887Z,2.53
2023-03-08T03:12:01.806Z,1.80
2023-03-08T03:14:31.653Z,2.50
2023-03-08T03:17:00.063Z,2.47
2023-03-08T03:19:28.636Z,2.10
2023-03-08T03:21:56.819Z,2.83
2023-03-08T03:24:25.305Z,2.77
2023-03-08T03:26:54.097Z,2.70
2023-03-08T03:29:22.857Z,2.83
2023-03-08T03:31:52.434Z,2.47
2023-03-08T03:34:20.867Z,2.37
2023-03-08T03:36:49.147Z,2.73
2023-03-08T03:39:17.616Z,2.87
2023-03-08T03:41:45.753Z,3.00
2023-03-08T03:44:14.254Z,2.63
2023-03-08T03:46:42.483Z,2.33
2023-03-08T03:49:12.297Z,2.50
2023-03-08T03:51:40.437Z,1.70
2023-03-08T03:54:09.073Z,2.90
2023-03-08T03:56:37.300Z,2.40
2023-03-08T03:59:05.771Z,1.90
2023-03-08T04:01:34.304Z,2.43
2023-03-08T04:04:02.908Z,2.60
2023-03-08T04:06:34.417Z,1.90
2023-03-08T04:09:05.588Z,2.37
2023-03-08T04:11:36.802Z,2.23
2023-03-08T04:14:06.093Z,1.60
2023-03-08T04:16:36.417Z,1.67
2023-03-08T04:19:07.256Z,1.80
2023-03-08T04:21:36.875Z,1.70
2023-03-08T04:24:06.197Z,2.50
2023-03-08T04:26:34.450Z,2.30
2023-03-08T04:29:06.252Z,2.43
2023-03-08T04:31:37.073Z,2.20
2023-03-08T04:34:05.748Z,2.60
2023-03-08T04:36:33.994Z,2.30
2023-03-08T04:39:03.889Z,1.60
2023-03-08T04:41:32.085Z,1.73
2023-03-08T04:44:00.640Z,2.23
2023-03-08T04:46:29.465Z,2.30
2023-03-08T04:48:58.080Z,2.43
2023-03-08T04:51:28.058Z,2.43
2023-03-08T04:53:56.732Z,1.97
2023-03-08T04:56:26.635Z,1.87
2023-03-08T04:58:55.108Z,1.83
2023-03-08T05:01:24.676Z,2.40
2023-03-08T05:03:53.850Z,2.33
2023-03-08T05:06:24.573Z,2.03
2023-03-08T05:08:53.635Z,2.57
2023-03-08T05:11:24.587Z,2.50
2023-03-08T05:13:55.544Z,2.43
2023-03-08T05:16:24.555Z,2.40
2023-03-08T05:18:53.355Z,2.37
2023-03-08T05:21:23.362Z,1.60
2023-03-08T05:23:51.837Z,1.40
2023-03-08T05:26:20.291Z,2.23
2023-03-08T05:28:49.027Z,1.80
2023-03-08T05:31:21.060Z,2.33
2023-03-08T05:33:51.270Z,2.10
2023-03-08T05:36:20.659Z,2.00
2023-03-08T05:38:49.272Z,2.23
2023-03-08T05:41:18.252Z,1.73
2023-03-08T05:43:46.728Z,2.67
2023-03-08T05:46:18.889Z,2.30
2023-03-08T05:48:47.868Z,1.93
2023-03-08T05:51:17.811Z,1.93
2023-03-08T05:53:47.072Z,2.70
2023-03-08T05:56:16.693Z,2.00
2023-03-08T05:58:48.037Z,1.47
2023-03-08T06:01:20.095Z,1.80
2023-03-08T06:03:50.027Z,2.00
2023-03-08T06:06:20.442Z,1.77
2023-03-08T06:08:49.424Z,2.37
2023-03-08T06:11:17.813Z,2.07
2023-03-08T06:13:46.326Z,2.50
2023-03-08T06:16:14.861Z,2.60
2023-03-08T06:18:45.137Z,2.53
2023-03-08T06:21:15.629Z,2.90
2023-03-08T06:23:45.601Z,2.67
2023-03-08T06:26:14.538Z,3.07
2023-03-08T06:28:43.817Z,2.93
2023-03-08T06:31:14.805Z,3.67
2023-03-08T06:33:44.948Z,3.53
2023-03-08T06:36:15.832Z,3.00
2023-03-08T06:38:45.026Z,3.23
2023-03-08T06:41:14.799Z,3.57
2023-03-08T06:43:43.650Z,3.50
2023-03-08T06:46:14.122Z,3.17
2023-03-08T06:48:44.309Z,2.50
2023-03-08T06:51:12.520Z,3.07
2023-03-08T06:53:41.180Z,3.17
2023-03-08T06:56:10.446Z,3.17
2023-03-08T06:58:39.261Z,2.63
2023-03-08T07:01:09.742Z,2.73
2023-03-08T07:03:38.867Z,3.10
2023-03-08T07:06:10.612Z,3.13
2023-03-08T07:08:40.388Z,3.20
2023-03-08T07:11:09.766Z,3.80
2023-03-08T07:13:38.900Z,2.53
2023-03-08T07:16:09.329Z,3.30
2023-03-08T07:18:37.931Z,3.33
2023-03-08T07:21:10.250Z,3.23
2023-03-08T07:23:38.925Z,3.73
2023-03-08T07:26:07.547Z,3.93
2023-03-08T07:28:37.081Z,3.73
2023-03-08T07:31:05.719Z,3.80
2023-03-08T07:33:35.266Z,3.33
2023-03-08T07:36:03.669Z,3.77
2023-03-08T07:38:33.603Z,4.07
2023-03-08T07:41:01.836Z,3.83
2023-03-08T07:43:30.414Z,3.90
2023-03-08T07:46:01.786Z,4.30
2023-03-08T07:48:30.905Z,3.27
2023-03-08T07:51:03.599Z,3.60
2023-03-08T07:53:34.240Z,3.57
2023-03-08T07:56:02.656Z,4.00
2023-03-08T07:58:31.433Z,4.07
2023-03-08T08:00:59.765Z,4.10
2023-03-08T08:03:30.459Z,4.05
2023-03-08T08:06:02.436Z,4.10
2023-03-08T08:08:31.102Z,4.03
2023-03-08T08:11:00.829Z,3.90
2023-03-08T08:13:29.346Z,3.40
2023-03-08T08:26:26.528Z,4.78
2023-03-08T08:28:55.872Z,5.13
2023-03-08T08:31:25.727Z,4.80
2023-03-08T08:33:54.332Z,4.68
2023-03-08T08:36:22.749Z,5.05
2023-03-08T08:38:51.553Z,4.95
2023-03-08T08:41:21.560Z,4.20
2023-03-08T08:43:52.324Z,4.47
2023-03-08T08:46:20.676Z,4.72
2023-03-08T08:48:49.175Z,5.13
2023-03-08T08:51:17.478Z,5.15
2023-03-08T08:53:46.024Z,5.05
2023-03-08T08:56:26.186Z,5.22
2023-03-08T08:58:58.470Z,4.10
2023-03-08T09:01:29.320Z,4.20
2023-03-08T09:03:57.889Z,5.70
2023-03-08T09:06:27.436Z,5.05
2023-03-08T09:08:58.227Z,5.45
2023-03-08T09:11:28.491Z,4.47
2023-03-08T09:13:58.773Z,4.35
2023-03-08T09:16:28.513Z,3.88
2023-03-08T09:18:58.790Z,3.88
2023-03-08T09:21:28.376Z,3.53
2023-03-08T09:23:57.304Z,3.90
2023-03-08T09:26:25.529Z,3.75
2023-03-08T09:28:54.049Z,4.03
2023-03-08T09:31:24.092Z,3.72
2023-03-08T09:33:53.208Z,2.60
2023-03-08T09:36:21.935Z,3.42
2023-03-08T09:38:52.881Z,2.95
2023-03-08T09:41:40.557Z,3.33
2023-03-08T09:44:19.250Z,3.30
2023-03-08T09:46:54.370Z,2.53
2023-03-08T09:49:28.528Z,3.60
2023-03-08T09:52:07.760Z,3.20
2023-03-08T09:54:38.901Z,3.10
2023-03-08T09:57:12.251Z,3.33
2023-03-08T09:59:45.941Z,2.90
2023-03-08T10:02:25.053Z,2.63
2023-03-08T10:05:12.234Z,2.83
2023-03-08T10:07:50.933Z,3.17
2023-03-08T10:10:34.780Z,2.75
2023-03-08T10:13:24.632Z,2.60
2023-03-08T10:15:59.169Z,3.08
2023-03-08T10:18:33.288Z,2.60
2023-03-08T10:21:03.261Z,3.07
2023-03-08T10:23:33.670Z,2.23
2023-03-08T10:26:03.637Z,2.23
2023-03-08T10:28:32.134Z,2.03
2023-03-08T10:31:04.547Z,2.27
2023-03-08T10:33:36.795Z,2.70
2023-03-08T10:36:12.700Z,2.30
2023-03-08T10:38:41.016Z,2.07
2023-03-08T10:41:15.673Z,3.20
2023-03-08T10:43:47.830Z,2.63
2023-03-08T10:46:19.437Z,2.10
2023-03-08T10:48:49.566Z,2.40
2023-03-08T10:51:19.453Z,1.83
2023-03-08T10:53:55.506Z,2.83
2023-03-08T10:56:27.632Z,2.10
2023-03-08T10:58:58.334Z,2.03
2023-03-08T11:01:29.387Z,2.30
2023-03-08T11:04:05.436Z,2.37
2023-03-08T11:06:36.233Z,2.00
2023-03-08T11:09:19.355Z,2.10
2023-03-08T11:11:47.884Z,2.73
2023-03-08T11:14:16.758Z,2.07
2023-03-08T11:17:06.691Z,2.27
2023-03-08T11:19:49.502Z,1.40
2023-03-08T11:22:28.972Z,1.83
2023-03-08T11:25:12.394Z,2.30
2023-03-08T11:27:58.713Z,1.77
2023-03-08T11:30:37.142Z,2.20
2023-03-08T11:33:24.514Z,2.03
2023-03-08T11:36:00.858Z,2.20
2023-03-08T11:38:31.388Z,1.93
2023-03-08T11:41:07.954Z,2.33
2023-03-08T11:43:58.635Z,2.37
2023-03-08T11:46:31.674Z,2.43
2023-03-08T11:49:17.243Z,2.30
2023-03-08T11:51:54.074Z,2.20
2023-03-08T11:54:34.910Z,2.77
2023-03-08T11:57:05.343Z,2.67
2023-03-08T11:59:36.653Z,3.17
2023-03-08T12:02:15.056Z,3.13
2023-03-08T12:04:49.436Z,2.73
2023-03-08T12:07:35.407Z,3.00
2023-03-08T12:10:16.248Z,3.33
2023-03-08T12:12:49.154Z,2.70
2023-03-08T12:15:25.767Z,2.80
2023-03-08T12:17:58.298Z,3.30
2023-03-08T12:20:32.874Z,2.50
2023-03-08T12:23:11.285Z,2.83
2023-03-08T12:25:42.792Z,3.53
2023-03-08T12:28:17.745Z,2.80
2023-03-08T12:31:01.024Z,2.87
2023-03-08T12:33:32.409Z,3.00
2023-03-08T12:36:03.397Z,3.13
2023-03-08T12:38:37.165Z,3.23
2023-03-08T12:41:07.323Z,3.03
2023-03-08T12:43:38.053Z,3.13
2023-03-08T12:46:08.963Z,2.70
2023-03-08T12:48:47.639Z,2.90
2023-03-08T12:51:24.123Z,2.43
2023-03-08T12:54:02.539Z,2.60
2023-03-08T12:56:33.851Z,2.90
2023-03-08T12:59:03.974Z,2.70
2023-03-08T13:01:36.281Z,2.10
2023-03-08T13:04:06.227Z,2.67
2023-03-08T13:06:59.930Z,2.67
2023-03-08T13:09:32.908Z,2.50
2023-03-08T13:12:18.540Z,2.40
2023-03-08T13:14:59.566Z,1.97
2023-03-08T13:17:39.434Z,2.27
2023-03-08T13:20:19.497Z,2.90
2023-03-08T13:23:03.728Z,2.70
2023-03-08T13:25:55.794Z,2.40
2023-03-08T13:28:30.482Z,2.80
2023-03-08T13:31:16.754Z,2.47
2023-03-08T13:33:48.228Z,2.20
2023-03-08T13:36:20.025Z,2.40
2023-03-08T13:38:58.736Z,2.10
2023-03-08T13:41:36.902Z,1.73
2023-03-08T13:44:07.635Z,2.07
2023-03-08T13:46:37.299Z,2.13
2023-03-08T13:49:17.206Z,2.40
2023-03-08T13:51:48.471Z,2.40
2023-03-08T13:54:18.621Z,2.70
2023-03-08T13:56:54.166Z,2.63
2023-03-08T13:59:23.126Z,2.70
2023-03-08T14:01:53.223Z,2.30
2023-03-08T14:04:24.386Z,2.00
2023-03-08T14:06:54.703Z,2.30
2023-03-08T14:09:23.896Z,2.07
2023-03-08T14:12:00.674Z,2.90
2023-03-08T14:14:32.282Z,2.27
2023-03-08T14:17:01.544Z,1.83
2023-03-08T14:19:32.418Z,2.03
2023-03-08T14:22:02.936Z,2.27
2023-03-08T14:24:33.890Z,1.90
2023-03-08T14:27:05.334Z,2.03
2023-03-08T14:29:36.147Z,2.17
2023-03-08T14:32:08.038Z,1.90
2023-03-08T14:34:39.509Z,1.93
2023-03-08T14:37:14.771Z,2.17
2023-03-08T14:39:45.656Z,2.67
2023-03-08T14:42:23.540Z,2.70
2023-03-08T14:44:53.831Z,2.67
2023-03-08T14:47:25.091Z,2.57
2023-03-08T14:49:58.173Z,2.23
2023-03-08T14:52:28.477Z,2.30
2023-03-08T14:54:57.267Z,1.73
2023-03-08T14:57:28.941Z,2.40
2023-03-08T15:00:07.849Z,3.07
2023-03-08T15:02:37.706Z,2.43
2023-03-08T15:05:09.055Z,2.20
2023-03-08T15:07:37.982Z,2.63
2023-03-08T15:10:08.298Z,2.70
2023-03-08T15:12:37.837Z,2.73
2023-03-08T15:15:14.344Z,2.33
2023-03-08T15:17:42.658Z,2.60
2023-03-08T15:20:12.734Z,2.40
2023-03-08T15:22:45.083Z,2.60
2023-03-08T15:25:20.529Z,2.63
2023-03-08T15:27:50.629Z,2.60
2023-03-08T15:30:21.633Z,2.47
2023-03-08T15:32:50.262Z,3.10
2023-03-08T15:35:19.812Z,2.87
2023-03-08T15:37:48.261Z,3.03
2023-03-08T15:40:22.646Z,4.13
2023-03-08T15:42:52.619Z,3.63
2023-03-08T15:45:21.719Z,3.40
2023-03-08T15:47:58.261Z,3.70
2023-03-08T15:50:27.800Z,3.87
2023-03-08T15:52:56.605Z,3.33
2023-03-08T15:55:26.598Z,3.33
2023-03-08T15:57:56.520Z,3.57
2023-03-08T16:00:25.984Z,2.73
2023-03-08T16:02:54.878Z,3.20
2023-03-08T16:05:25.167Z,3.53
2023-03-08T16:07:58.080Z,3.73
2023-03-08T16:10:27.743Z,4.20
2023-03-08T16:12:57.536Z,3.60
2023-03-08T16:15:26.442Z,3.43
2023-03-08T16:17:54.859Z,4.00
2023-03-08T16:20:23.492Z,4.17
2023-03-08T16:22:52.086Z,4.00
2023-03-08T16:25:22.897Z,4.00
2023-03-08T16:27:52.670Z,5.33
2023-03-08T16:30:23.055Z,4.50
2023-03-08T16:32:53.937Z,4.90
2023-03-08T16:35:22.550Z,4.87
2023-03-08T16:37:50.802Z,4.33
2023-03-08T16:40:19.737Z,5.27
2023-03-08T16:42:50.818Z,4.67
2023-03-08T16:45:19.735Z,5.07
2023-03-08T16:47:49.493Z,4.97
2023-03-08T16:50:18.470Z,5.57
2023-03-08T16:52:46.718Z,4.97
2023-03-08T16:55:15.285Z,4.47
2023-03-08T16:57:43.546Z,5.27
2023-03-08T17:00:13.357Z,4.80
2023-03-08T17:02:41.741Z,4.53
2023-03-08T17:05:13.972Z,4.20
2023-03-08T17:07:42.280Z,4.63
2023-03-08T17:10:11.912Z,5.20
2023-03-08T17:12:40.102Z,5.20
2023-03-08T17:15:10.929Z,5.33
2023-03-08T17:17:39.799Z,5.20
2023-03-08T17:20:14.084Z,5.80
2023-03-08T17:22:42.737Z,5.57
2023-03-08T17:25:11.437Z,8.17
2023-03-08T17:27:39.552Z,8.17
2023-03-08T17:30:10.196Z,8.60
2023-03-08T17:32:38.503Z,8.47
2023-03-08T17:35:08.092Z,8.83
2023-03-08T17:37:41.796Z,8.17
2023-03-08T17:40:12.676Z,10.30
2023-03-08T17:42:40.991Z,9.07
2023-03-08T17:45:10.316Z,9.60
2023-03-08T17:47:38.872Z,10.03
2023-03-08T17:50:08.722Z,10.70
2023-03-08T17:52:39.318Z,10.60
2023-03-08T17:55:08.330Z,12.00
2023-03-08T17:57:36.847Z,13.83
2023-03-08T18:00:10.928Z,13.37
2023-03-08T18:02:39.402Z,14.13
2023-03-08T18:05:09.156Z,14.10
2023-03-08T18:07:41.301Z,14.37
2023-03-08T18:10:12.341Z,13.27
2023-03-08T18:12:44.739Z,13.80
2023-03-08T18:15:14.483Z,11.80
2023-03-08T18:17:42.890Z,14.10
2023-03-08T18:20:12.501Z,13.50
2023-03-08T18:22:42.142Z,12.50
2023-03-08T18:25:11.346Z,13.47
2023-03-08T18:27:40.410Z,14.33
2023-03-08T18:30:11.885Z,11.93
2023-03-08T18:32:40.515Z,14.13
2023-03-08T18:35:09.840Z,13.83
2023-03-08T18:37:38.108Z,12.93
2023-03-08T18:40:12.113Z,14.13
2023-03-08T18:42:40.587Z,14.07
2023-03-08T18:45:10.762Z,13.00
2023-03-08T18:47:39.744Z,13.80
2023-03-08T18:50:12.725Z,13.23
2023-03-08T18:52:40.939Z,12.90
2023-03-08T18:55:12.925Z,12.97
2023-03-08T18:57:41.562Z,13.17
2023-03-08T19:00:12.063Z,13.63
2023-03-08T19:02:40.373Z,12.80
2023-03-08T19:05:09.561Z,15.00
2023-03-08T19:07:37.903Z,14.80
2023-03-08T19:10:07.243Z,14.03
2023-03-08T19:12:38.014Z,14.20
2023-03-08T19:15:07.923Z,13.77
2023-03-08T19:17:36.132Z,13.20
2023-03-08T19:20:06.634Z,14.93
2023-03-08T19:22:34.921Z,16.37
2023-03-08T19:25:05.895Z,15.73
2023-03-08T19:27:36.135Z,15.27
2023-03-08T19:30:05.489Z,15.97
2023-03-08T19:32:33.946Z,14.17
2023-03-08T19:35:04.475Z,14.37
2023-03-08T19:37:32.839Z,15.27
2023-03-08T19:40:01.613Z,14.83
2023-03-08T19:42:29.834Z,15.13
2023-03-08T19:44:59.748Z,14.70
2023-03-08T19:47:28.033Z,16.40
2023-03-08T19:49:56.761Z,14.43
2023-03-08T19:52:25.155Z,16.50
2023-03-08T19:54:53.638Z,15.73
2023-03-08T19:57:21.824Z,14.90
2023-03-08T19:59:50.263Z,15.90
2023-03-08T20:02:19.919Z,18.00
2023-03-08T20:04:48.629Z,18.20
2023-03-08T20:07:16.811Z,18.33
2023-03-08T20:09:45.684Z,17.13
2023-03-08T20:12:14.012Z,16.73
2023-03-08T20:14:42.545Z,17.13
2023-03-08T20:17:10.748Z,17.27
2023-03-08T20:19:40.677Z,16.60
2023-03-08T20:22:08.992Z,17.43
2023-03-08T20:24:37.631Z,17.87
2023-03-08T20:27:05.844Z,17.93
2023-03-08T20:29:34.491Z,17.83
2023-03-08T20:32:02.746Z,17.50
2023-03-08T20:34:32.238Z,17.93
2023-03-08T20:37:01.882Z,16.40
2023-03-08T20:39:30.478Z,16.37
2023-03-08T20:41:58.647Z,18.00
2023-03-08T20:44:27.133Z,17.73
2023-03-08T20:46:55.289Z,17.40
2023-03-08T20:49:24.296Z,20.30
2023-03-08T20:51:52.541Z,22.67
2023-03-08T20:54:22.386Z,24.50
2023-03-08T20:56:50.720Z,22.57
2023-03-08T20:59:23.095Z,24.13
2023-03-08T21:01:51.706Z,22.23
2023-03-08T21:04:20.549Z,22.40
2023-03-08T21:06:49.575Z,21.00
2023-03-08T21:09:18.267Z,22.80
2023-03-08T21:11:48.097Z,20.63
2023-03-08T21:14:16.632Z,21.07
2023-03-08T21:16:44.845Z,22.10
2023-03-08T21:19:13.379Z,22.20
2023-03-08T21:21:43.505Z,22.93
2023-03-08T21:24:14.958Z,20.63
2023-03-08T21:26:43.640Z,21.40
2023-03-08T21:29:14.974Z,19.87
2023-03-08T21:31:44.978Z,20.97
2023-03-08T21:34:14.326Z,19.47
2023-03-08T21:36:42.698Z,18.90
2023-03-08T21:39:12.157Z,19.93
2023-03-08T21:41:42.937Z,16.30
2023-03-08T21:44:18.854Z,16.70
2023-03-08T21:46:47.768Z,16.13
2023-03-08T21:49:19.247Z,15.93
2023-03-08T21:51:47.401Z,19.17
2023-03-08T21:54:16.410Z,19.07
2023-03-08T21:56:44.705Z,16.87
2023-03-08T21:59:16.753Z,17.73
2023-03-08T22:01:48.140Z,17.60
2023-03-08T22:04:17.711Z,17.13
2023-03-08T22:06:46.392Z,15.97
2023-03-08T22:09:15.131Z,15.57
2023-03-08T22:11:43.335Z,15.93
2023-03-08T22:14:12.633Z,15.40
2023-03-08T22:16:42.263Z,12.93
2023-03-08T22:19:12.036Z,16.50
2023-03-08T22:21:40.320Z,14.17
2023-03-08T22:24:09.113Z,14.00
2023-03-08T22:26:37.404Z,14.00
2023-03-08T22:29:05.982Z,12.97
2023-03-08T22:31:34.531Z,13.53
2023-03-08T22:34:04.423Z,12.50
2023-03-08T22:36:32.581Z,12.90
2023-03-08T22:39:01.192Z,14.03
2023-03-08T22:41:29.690Z,13.83
2023-03-08T22:43:59.227Z,14.17
2023-03-08T22:46:28.849Z,13.50
2023-03-08T22:48:58.712Z,14.03
2023-03-08T22:51:28.703Z,13.60
2023-03-08T22:53:59.095Z,13.20
2023-03-08T22:56:30.182Z,14.63
2023-03-08T22:58:59.310Z,13.13
2023-03-08T23:01:28.997Z,13.37
2023-03-08T23:03:59.682Z,12.30
2023-03-08T23:06:31.859Z,12.33
2023-03-08T23:09:02.620Z,15.13
2023-03-08T23:11:31.269Z,16.73
2023-03-08T23:14:00.147Z,18.57
2023-03-08T23:16:29.201Z,17.87
2023-03-08T23:19:18.164Z,15.37
2023-03-08T23:21:48.460Z,15.17
2023-03-08T23:25:25.517Z,14.47
2023-03-08T23:27:54.923Z,13.87
2023-03-08T23:30:24.231Z,13.87
2023-03-08T23:32:52.933Z,13.90
2023-03-08T23:35:22.137Z,13.23
2023-03-08T23:37:52.214Z,13.47
2023-03-08T23:40:21.209Z,11.40
2023-03-08T23:42:49.416Z,12.43
2023-03-08T23:45:18.034Z,13.73
2023-03-08T23:47:46.325Z,12.27
2023-03-08T23:50:15.100Z,12.90
2023-03-08T23:52:43.267Z,14.03
2023-03-08T23:55:13.731Z,15.23
2023-03-08T23:57:42.153Z,13.30
